sensor_id;sensor_type;location;lat;lon;timestamp;pressure;altitude;pressure_sealevel;temperature;humidity
76022;BME280;64718;52.124;6.226;2023-02-05T00:00:18;103680.22;;;5.17;100.00
76022;BME280;64718;52.124;6.226;2023-02-05T00:02:45;103694.81;;;5.15;100.00
76022;BME280;64718;52.124;6.226;2023-02-05T00:05:11;103687.97;;;5.17;100.00
76022;BME280;64718;52.124;6.226;2023-02-05T00:07:38;103681.06;;;5.16;100.00
76022;BME280;64718;52.124;6.226;2023-02-05T00:10:05;103673.28;;;5.14;100.00
76022;BME280;64718;52.124;6.226;2023-02-05T00:12:33;103669.03;;;5.16;100.00
76022;BME280;64718;52.124;6.226;2023-02-05T00:15:00;103658.78;;;5.19;100.00
76022;BME280;64718;52.124;6.226;2023-02-05T00:17:26;103649.56;;;5.27;100.00
76022;BME280;64718;52.124;6.226;2023-02-05T00:19:53;103644.34;;;5.24;100.00
76022;BME280;64718;52.124;6.226;2023-02-05T00:22:19;103643.53;;;5.27;100.00
76022;BME280;64718;52.124;6.226;2023-02-05T00:24:46;103639.81;;;5.17;100.00
76022;BME280;64718;52.124;6.226;2023-02-05T00:27:12;103627.66;;;5.12;100.00
76022;BME280;64718;52.124;6.226;2023-02-05T00:29:40;103618.19;;;5.12;100.00
76022;BME280;64718;52.124;6.226;2023-02-05T00:32:07;103628.56;;;5.14;100.00
76022;BME280;64718;52.124;6.226;2023-02-05T00:34:33;103634.00;;;5.24;100.00
76022;BME280;64718;52.124;6.226;2023-02-05T00:37:00;103638.31;;;5.24;100.00
76022;BME280;64718;52.124;6.226;2023-02-05T00:39:26;103632.22;;;5.22;100.00
76022;BME280;64718;52.124;6.226;2023-02-05T00:41:53;103622.81;;;5.24;100.00
76022;BME280;64718;52.124;6.226;2023-02-05T00:44:19;103609.06;;;5.23;100.00
76022;BME280;64718;52.124;6.226;2023-02-05T00:46:47;103589.31;;;5.25;100.00
76022;BME280;64718;52.124;6.226;2023-02-05T00:49:14;103582.41;;;5.24;100.00
76022;BME280;64718;52.124;6.226;2023-02-05T00:51:40;103586.13;;;5.35;100.00
76022;BME280;64718;52.124;6.226;2023-02-05T00:54:07;103591.25;;;5.34;100.00
76022;BME280;64718;52.124;6.226;2023-02-05T00:56:33;103597.13;;;5.28;100.00
76022;BME280;64718;52.124;6.226;2023-02-05T00:59:00;103593.59;;;5.25;100.00
76022;BME280;64718;52.124;6.226;2023-02-05T01:01:26;103598.84;;;5.28;100.00
76022;BME280;64718;52.124;6.226;2023-02-05T01:03:54;103599.66;;;5.27;100.00
76022;BME280;64718;52.124;6.226;2023-02-05T01:06:21;103612.78;;;5.36;100.00
76022;BME280;64718;52.124;6.226;2023-02-05T01:08:47;103602.25;;;5.27;100.00
76022;BME280;64718;52.124;6.226;2023-02-05T01:11:14;103603.84;;;5.22;100.00
76022;BME280;64718;52.124;6.226;2023-02-05T01:13:40;103592.72;;;5.24;100.00
76022;BME280;64718;52.124;6.226;2023-02-05T01:16:07;103590.94;;;5.22;100.00
76022;BME280;64718;52.124;6.226;2023-02-05T01:18:34;103595.41;;;5.29;100.00
76022;BME280;64718;52.124;6.226;2023-02-05T01:21:02;103606.63;;;5.29;100.00
76022;BME280;64718;52.124;6.226;2023-02-05T01:23:29;103597.13;;;5.28;100.00
76022;BME280;64718;52.124;6.226;2023-02-05T01:25:55;103610.31;;;5.40;100.00
76022;BME280;64718;52.124;6.226;2023-02-05T01:28:22;103619.88;;;5.45;100.00
76022;BME280;64718;52.124;6.226;2023-02-05T01:30:49;103617.34;;;5.46;100.00
76022;BME280;64718;52.124;6.226;2023-02-05T01:33:16;103613.03;;;5.47;100.00
76022;BME280;64718;52.124;6.226;2023-02-05T01:35:43;103612.25;;;5.49;100.00
76022;BME280;64718;52.124;6.226;2023-02-05T01:38:11;103617.44;;;5.51;100.00
76022;BME280;64718;52.124;6.226;2023-02-05T01:40:38;103613.16;;;5.51;100.00
76022;BME280;64718;52.124;6.226;2023-02-05T01:43:10;103616.75;;;5.58;100.00
76022;BME280;64718;52.124;6.226;2023-02-05T01:45:47;103618.59;;;5.63;100.00
76022;BME280;64718;52.124;6.226;2023-02-05T01:48:20;103609.13;;;5.64;100.00
76022;BME280;64718;52.124;6.226;2023-02-05T01:50:49;103609.97;;;5.63;100.00
76022;BME280;64718;52.124;6.226;2023-02-05T01:53:20;103612.63;;;5.66;100.00
76022;BME280;64718;52.124;6.226;2023-02-05T01:55:52;103605.91;;;5.74;100.00
76022;BME280;64718;52.124;6.226;2023-02-05T01:58:19;103597.22;;;5.70;100.00
76022;BME280;64718;52.124;6.226;2023-02-05T02:00:46;103610.13;;;5.70;100.00
76022;BME280;64718;52.124;6.226;2023-02-05T02:03:13;103615.34;;;5.72;100.00
76022;BME280;64718;52.124;6.226;2023-02-05T02:05:41;103608.50;;;5.74;100.00
76022;BME280;64718;52.124;6.226;2023-02-05T02:08:09;103597.28;;;5.73;100.00
76022;BME280;64718;52.124;6.226;2023-02-05T02:10:37;103596.47;;;5.75;100.00
76022;BME280;64718;52.124;6.226;2023-02-05T02:13:04;103584.38;;;5.73;100.00
76022;BME280;64718;52.124;6.226;2023-02-05T02:15:31;103586.16;;;5.76;100.00
76022;BME280;64718;52.124;6.226;2023-02-05T02:18:00;103581.88;;;5.77;100.00
76022;BME280;64718;52.124;6.226;2023-02-05T02:20:41;103568.91;;;5.75;100.00
76022;BME280;64718;52.124;6.226;2023-02-05T02:23:17;103563.66;;;5.70;100.00
76022;BME280;64718;52.124;6.226;2023-02-05T02:28:43;103566.38;;;5.77;100.00
76022;BME280;64718;52.124;6.226;2023-02-05T02:31:12;103558.59;;;5.75;100.00
76022;BME280;64718;52.124;6.226;2023-02-05T02:33:45;103559.66;;;5.83;100.00
76022;BME280;64718;52.124;6.226;2023-02-05T02:36:18;103544.13;;;5.82;100.00
76022;BME280;64718;52.124;6.226;2023-02-05T02:38:52;103545.72;;;5.77;100.00
76022;BME280;64718;52.124;6.226;2023-02-05T02:41:24;103547.44;;;5.78;100.00
76022;BME280;64718;52.124;6.226;2023-02-05T02:43:56;103544.84;;;5.76;100.00
76022;BME280;64718;52.124;6.226;2023-02-05T02:46:27;103545.69;;;5.75;100.00
76022;BME280;64718;52.124;6.226;2023-02-05T02:48:57;103551.72;;;5.76;100.00
76022;BME280;64718;52.124;6.226;2023-02-05T02:51:27;103547.44;;;5.78;100.00
76022;BME280;64718;52.124;6.226;2023-02-05T02:53:56;103548.22;;;5.73;100.00
76022;BME280;64718;52.124;6.226;2023-02-05T02:56:25;103539.56;;;5.70;100.00
76022;BME280;64718;52.124;6.226;2023-02-05T02:58:56;103530.97;;;5.71;100.00
76022;BME280;64718;52.124;6.226;2023-02-05T03:01:27;103528.31;;;5.68;100.00
76022;BME280;64718;52.124;6.226;2023-02-05T03:03:58;103529.09;;;5.64;100.00
76022;BME280;64718;52.124;6.226;2023-02-05T03:06:29;103533.50;;;5.69;100.00
76022;BME280;64718;52.124;6.226;2023-02-05T03:09:00;103535.19;;;5.67;100.00
76022;BME280;64718;52.124;6.226;2023-02-05T03:11:27;103532.63;;;5.67;100.00
76022;BME280;64718;52.124;6.226;2023-02-05T03:13:56;103539.50;;;5.67;100.00
76022;BME280;64718;52.124;6.226;2023-02-05T03:16:25;103533.50;;;5.69;100.00
76022;BME280;64718;52.124;6.226;2023-02-05T03:18:52;103530.94;;;5.69;100.00
76022;BME280;64718;52.124;6.226;2023-02-05T03:21:23;103522.25;;;5.66;100.00
76022;BME280;64718;52.124;6.226;2023-02-05T03:23:50;103527.56;;;5.73;100.00
76022;BME280;64718;52.124;6.226;2023-02-05T03:26:25;103532.03;;;5.79;100.00
76022;BME280;64718;52.124;6.226;2023-02-05T03:28:52;103536.25;;;5.77;100.00
76022;BME280;64718;52.124;6.226;2023-02-05T03:31:23;103536.47;;;5.86;100.00
76022;BME280;64718;52.124;6.226;2023-02-05T03:33:59;103540.84;;;5.89;100.00
76022;BME280;64718;52.124;6.226;2023-02-05T03:36:33;103545.03;;;5.84;100.00
76022;BME280;64718;52.124;6.226;2023-02-05T03:39:12;103546.00;;;5.89;100.00
76022;BME280;64718;52.124;6.226;2023-02-05T03:41:47;103539.91;;;5.85;100.00
76022;BME280;64718;52.124;6.226;2023-02-05T03:44:40;103549.50;;;5.91;100.00
76022;BME280;64718;52.124;6.226;2023-02-05T03:47:31;103546.00;;;5.89;100.00
76022;BME280;64718;52.124;6.226;2023-02-05T03:50:08;103546.94;;;5.91;100.00
76022;BME280;64718;52.124;6.226;2023-02-05T03:52:40;103546.13;;;5.93;100.00
76022;BME280;64718;52.124;6.226;2023-02-05T03:55:10;103545.38;;;5.99;100.00
76022;BME280;64718;52.124;6.226;2023-02-05T03:57:41;103535.03;;;5.99;100.00
76022;BME280;64718;52.124;6.226;2023-02-05T04:00:11;103533.31;;;5.99;100.00
76022;BME280;64718;52.124;6.226;2023-02-05T04:02:39;103532.47;;;5.99;100.00
76022;BME280;64718;52.124;6.226;2023-02-05T04:05:06;103533.34;;;6.01;100.00
76022;BME280;64718;52.124;6.226;2023-02-05T04:07:33;103529.16;;;6.06;100.00
76022;BME280;64718;52.124;6.226;2023-02-05T04:09:59;103536.94;;;6.08;100.00
76022;BME280;64718;52.124;6.226;2023-02-05T04:12:26;103543.81;;;6.07;100.00
76022;BME280;64718;52.124;6.226;2023-02-05T04:14:53;103540.50;;;6.14;100.00
76022;BME280;64718;52.124;6.226;2023-02-05T04:17:19;103532.69;;;6.11;100.00
76022;BME280;64718;52.124;6.226;2023-02-05T04:19:47;103525.81;;;6.12;100.00
76022;BME280;64718;52.124;6.226;2023-02-05T04:22:14;103524.97;;;6.13;100.00
76022;BME280;64718;52.124;6.226;2023-02-05T04:24:40;103521.59;;;6.17;100.00
76022;BME280;64718;52.124;6.226;2023-02-05T04:27:07;103520.66;;;6.13;100.00
76022;BME280;64718;52.124;6.226;2023-02-05T04:29:35;103520.66;;;6.12;100.00
76022;BME280;64718;52.124;6.226;2023-02-05T04:32:02;103524.09;;;6.12;100.00
76022;BME280;64718;52.124;6.226;2023-02-05T04:34:29;103527.63;;;6.16;100.00
76022;BME280;64718;52.124;6.226;2023-02-05T04:36:57;103525.00;;;6.14;100.00
76022;BME280;64718;52.124;6.226;2023-02-05T04:39:23;103526.78;;;6.17;100.00
76022;BME280;64718;52.124;6.226;2023-02-05T04:41:50;103517.28;;;6.16;100.00
76022;BME280;64718;52.124;6.226;2023-02-05T04:44:16;103517.34;;;6.19;100.00
76022;BME280;64718;52.124;6.226;2023-02-05T04:46:43;103512.22;;;6.22;100.00
76022;BME280;64718;52.124;6.226;2023-02-05T04:49:09;103519.91;;;6.19;100.00
76022;BME280;64718;52.124;6.226;2023-02-05T04:51:36;103520.81;;;6.21;100.00
76022;BME280;64718;52.124;6.226;2023-02-05T04:54:04;103519.06;;;6.20;100.00
76022;BME280;64718;52.124;6.226;2023-02-05T04:56:31;103527.69;;;6.20;100.00
76022;BME280;64718;52.124;6.226;2023-02-05T04:58:57;103521.69;;;6.21;100.00
76022;BME280;64718;52.124;6.226;2023-02-05T05:01:24;103517.31;;;6.17;100.00
76022;BME280;64718;52.124;6.226;2023-02-05T05:03:50;103518.22;;;6.21;100.00
76022;BME280;64718;52.124;6.226;2023-02-05T05:06:17;103519.16;;;6.24;100.00
76022;BME280;64718;52.124;6.226;2023-02-05T05:08:44;103522.59;;;6.23;100.00
76022;BME280;64718;52.124;6.226;2023-02-05T05:11:14;103525.91;;;6.16;100.00
76022;BME280;64718;52.124;6.226;2023-02-05T05:13:42;103527.63;;;6.16;100.00
76022;BME280;64718;52.124;6.226;2023-02-05T05:16:10;103528.50;;;6.18;100.00
76022;BME280;64718;52.124;6.226;2023-02-05T05:18:38;103531.16;;;6.21;100.00
76022;BME280;64718;52.124;6.226;2023-02-05T05:21:05;103525.09;;;6.19;100.00
76022;BME280;64718;52.124;6.226;2023-02-05T05:23:32;103532.91;;;6.22;100.00
76022;BME280;64718;52.124;6.226;2023-02-05T05:26:03;103535.50;;;6.23;100.00
76022;BME280;64718;52.124;6.226;2023-02-05T05:28:31;103527.72;;;6.22;100.00
76022;BME280;64718;52.124;6.226;2023-02-05T05:30:59;103532.09;;;6.24;100.00
76022;BME280;64718;52.124;6.226;2023-02-05T05:33:26;103531.13;;;6.19;100.00
76022;BME280;64718;52.124;6.226;2023-02-05T05:35:52;103522.53;;;6.20;100.00
76022;BME280;64718;52.124;6.226;2023-02-05T05:38:19;103529.31;;;6.15;100.00
76022;BME280;64718;52.124;6.226;2023-02-05T05:40:45;103525.81;;;6.12;100.00
76022;BME280;64718;52.124;6.226;2023-02-05T05:43:31;103525.84;;;6.13;100.00
76022;BME280;64718;52.124;6.226;2023-02-05T05:46:13;103524.84;;;6.07;100.00
76022;BME280;64718;52.124;6.226;2023-02-05T05:48:40;103515.34;;;6.04;100.00
76022;BME280;64718;52.124;6.226;2023-02-05T05:51:06;103504.13;;;6.03;100.00
76022;BME280;64718;52.124;6.226;2023-02-05T05:53:33;103500.63;;;6.00;100.00
76022;BME280;64718;52.124;6.226;2023-02-05T05:55:59;103501.47;;;5.99;100.00
76022;BME280;64718;52.124;6.226;2023-02-05T05:58:26;103502.34;;;5.99;100.00
76022;BME280;64718;52.124;6.226;2023-02-05T06:00:54;103497.19;;;6.01;100.00
76022;BME280;64718;52.124;6.226;2023-02-05T06:03:21;103485.09;;;5.98;100.00
76022;BME280;64718;52.124;6.226;2023-02-05T06:05:48;103493.75;;;6.00;100.00
76022;BME280;64718;52.124;6.226;2023-02-05T06:08:14;103488.56;;;6.00;100.00
76022;BME280;64718;52.124;6.226;2023-02-05T06:10:42;103489.44;;;6.01;100.00
76022;BME280;64718;52.124;6.226;2023-02-05T06:13:09;103473.94;;;6.01;100.00
76022;BME280;64718;52.124;6.226;2023-02-05T06:15:35;103486.91;;;6.04;100.00
76022;BME280;64718;52.124;6.226;2023-02-05T06:18:04;103474.75;;;5.98;100.00
76022;BME280;64718;52.124;6.226;2023-02-05T06:20:30;103479.06;;;5.98;100.00
76022;BME280;64718;52.124;6.226;2023-02-05T06:22:57;103479.94;;;6.00;100.00
76022;BME280;64718;52.124;6.226;2023-02-05T06:25:23;103484.22;;;5.98;100.00
76022;BME280;64718;52.124;6.226;2023-02-05T06:27:50;103485.94;;;5.97;100.00
76022;BME280;64718;52.124;6.226;2023-02-05T06:30:16;103484.16;;;5.95;100.00
76022;BME280;64718;52.124;6.226;2023-02-05T06:32:43;103480.72;;;5.94;100.00
76022;BME280;64718;52.124;6.226;2023-02-05T06:35:11;103498.69;;;5.90;100.00
76022;BME280;64718;52.124;6.226;2023-02-05T06:37:38;103496.88;;;5.86;100.00
76022;BME280;64718;52.124;6.226;2023-02-05T06:40:05;103502.81;;;5.82;100.00
76022;BME280;64718;52.124;6.226;2023-02-05T06:42:31;103512.16;;;5.77;100.00
76022;BME280;64718;52.124;6.226;2023-02-05T06:44:58;103522.34;;;5.70;100.00
76022;BME280;64718;52.124;6.226;2023-02-05T06:47:24;103520.50;;;5.65;100.00
76022;BME280;64718;52.124;6.226;2023-02-05T06:49:51;103534.13;;;5.58;100.00
76022;BME280;64718;52.124;6.226;2023-02-05T06:52:19;103529.75;;;5.54;100.00
76022;BME280;64718;52.124;6.226;2023-02-05T06:54:45;103544.22;;;5.47;100.00
76022;BME280;64718;52.124;6.226;2023-02-05T06:57:12;103545.03;;;5.45;100.00
76022;BME280;64718;52.124;6.226;2023-02-05T06:59:38;103542.34;;;5.40;100.00
76022;BME280;64718;52.124;6.226;2023-02-05T07:02:05;103549.03;;;5.32;100.00
76022;BME280;64718;52.124;6.226;2023-02-05T07:04:33;103557.44;;;5.23;100.00
76022;BME280;64718;52.124;6.226;2023-02-05T07:06:59;103566.09;;;5.25;100.00
76022;BME280;64718;52.124;6.226;2023-02-05T07:09:27;103563.41;;;5.21;100.00
76022;BME280;64718;52.124;6.226;2023-02-05T07:11:54;103573.66;;;5.19;100.00
76022;BME280;64718;52.124;6.226;2023-02-05T07:14:20;103579.63;;;5.17;100.00
76022;BME280;64718;52.124;6.226;2023-02-05T07:16:47;103582.22;;;5.18;100.00
76022;BME280;64718;52.124;6.226;2023-02-05T07:19:14;103582.22;;;5.18;100.00
76022;BME280;64718;52.124;6.226;2023-02-05T07:21:41;103607.16;;;5.18;100.00
76022;BME280;64718;52.124;6.226;2023-02-05T07:24:08;103619.19;;;5.17;100.00
76022;BME280;64718;52.124;6.226;2023-02-05T07:26:36;103607.97;;;5.15;100.00
76022;BME280;64718;52.124;6.226;2023-02-05T07:29:02;103621.81;;;5.19;100.00
76022;BME280;64718;52.124;6.226;2023-02-05T07:31:29;103616.59;;;5.17;100.00
76022;BME280;64718;52.124;6.226;2023-02-05T07:33:56;103624.38;;;5.19;100.00
76022;BME280;64718;52.124;6.226;2023-02-05T07:36:22;103623.56;;;5.20;100.00
76022;BME280;64718;52.124;6.226;2023-02-05T07:38:49;103620.06;;;5.18;100.00
76022;BME280;64718;52.124;6.226;2023-02-05T07:41:16;103635.53;;;5.18;100.00
76022;BME280;64718;52.124;6.226;2023-02-05T07:43:44;103638.13;;;5.18;100.00
76022;BME280;64718;52.124;6.226;2023-02-05T07:46:13;103638.97;;;5.17;100.00
76022;BME280;64718;52.124;6.226;2023-02-05T07:48:40;103639.94;;;5.20;100.00
76022;BME280;64718;52.124;6.226;2023-02-05T07:51:06;103654.63;;;5.23;100.00
76022;BME280;64718;52.124;6.226;2023-02-05T07:53:33;103645.16;;;5.23;100.00
76022;BME280;64718;52.124;6.226;2023-02-05T07:56:01;103657.25;;;5.24;100.00
76022;BME280;64718;52.124;6.226;2023-02-05T07:58:28;103653.91;;;5.28;100.00
76022;BME280;64718;52.124;6.226;2023-02-05T08:01:00;103652.22;;;5.30;100.00
76022;BME280;64718;52.124;6.226;2023-02-05T08:03:27;103657.44;;;5.32;100.00
76022;BME280;64718;52.124;6.226;2023-02-05T08:05:53;103656.63;;;5.34;100.00
76022;BME280;64718;52.124;6.226;2023-02-05T08:08:20;103671.28;;;5.35;100.00
76022;BME280;64718;52.124;6.226;2023-02-05T08:10:47;103667.94;;;5.39;100.00
76022;BME280;64718;52.124;6.226;2023-02-05T08:13:20;103669.72;;;5.42;100.00
76022;BME280;64718;52.124;6.226;2023-02-05T08:15:46;103672.34;;;5.44;100.00
76022;BME280;64718;52.124;6.226;2023-02-05T08:18:14;103674.06;;;5.45;100.00
76022;BME280;64718;52.124;6.226;2023-02-05T08:20:41;103681.91;;;5.48;100.00
76022;BME280;64718;52.124;6.226;2023-02-05T08:23:08;103666.59;;;5.55;100.00
76022;BME280;64718;52.124;6.226;2023-02-05T08:25:34;103676.19;;;5.61;100.00
76022;BME280;64718;52.124;6.226;2023-02-05T08:28:01;103676.13;;;5.58;100.00
76022;BME280;64718;52.124;6.226;2023-02-05T08:30:27;103670.94;;;5.58;100.00
76022;BME280;64718;52.124;6.226;2023-02-05T08:32:54;103675.34;;;5.62;100.00
76022;BME280;64718;52.124;6.226;2023-02-05T08:35:22;103672.03;;;5.67;100.00
76022;BME280;64718;52.124;6.226;2023-02-05T08:37:48;103661.66;;;5.66;100.00
76022;BME280;64718;52.124;6.226;2023-02-05T08:40:15;103679.06;;;5.73;100.00
76022;BME280;64718;52.124;6.226;2023-02-05T08:42:42;103676.63;;;5.79;100.00
76022;BME280;64718;52.124;6.226;2023-02-05T08:45:08;103678.28;;;5.77;100.00
76022;BME280;64718;52.124;6.226;2023-02-05T08:47:35;103677.31;;;5.72;100.00
76022;BME280;64718;52.124;6.226;2023-02-05T08:50:02;103683.41;;;5.76;100.00
76022;BME280;64718;52.124;6.226;2023-02-05T08:52:30;103679.22;;;5.79;100.00
76022;BME280;64718;52.124;6.226;2023-02-05T08:54:57;103676.56;;;5.78;100.00
76022;BME280;64718;52.124;6.226;2023-02-05T08:57:26;103676.56;;;5.78;100.00
76022;BME280;64718;52.124;6.226;2023-02-05T08:59:54;103687.88;;;5.81;100.00
76022;BME280;64718;52.124;6.226;2023-02-05T09:02:21;103686.31;;;5.88;100.00
76022;BME280;64718;52.124;6.226;2023-02-05T09:04:48;103676.13;;;5.92;100.00
76022;BME280;64718;52.124;6.226;2023-02-05T09:07:15;103673.63;;;5.97;100.00
76022;BME280;64718;52.124;6.226;2023-02-05T09:09:43;103676.34;;;6.03;100.00
76022;BME280;64718;52.124;6.226;2023-02-05T09:12:09;103673.91;;;6.09;100.00
76022;BME280;64718;52.124;6.226;2023-02-05T09:14:36;103660.28;;;6.18;100.00
76022;BME280;64718;52.124;6.226;2023-02-05T09:17:03;103668.16;;;6.22;100.00
76022;BME280;64718;52.124;6.226;2023-02-05T09:19:33;103663.94;;;6.27;100.00
76022;BME280;64718;52.124;6.226;2023-02-05T09:22:00;103650.25;;;6.31;100.00
76022;BME280;64718;52.124;6.226;2023-02-05T09:24:27;103670.88;;;6.30;100.00
76022;BME280;64718;52.124;6.226;2023-02-05T09:26:55;103667.47;;;6.31;100.00
76022;BME280;64718;52.124;6.226;2023-02-05T09:29:22;103664.94;;;6.34;100.00
76022;BME280;64718;52.124;6.226;2023-02-05T09:31:48;103665.25;;;6.48;100.00
76022;BME280;64718;52.124;6.226;2023-02-05T09:34:15;103668.72;;;6.50;100.00
76022;BME280;64718;52.124;6.226;2023-02-05T09:36:42;103676.44;;;6.47;100.00
76022;BME280;64718;52.124;6.226;2023-02-05T09:39:09;103674.72;;;6.47;100.00
76022;BME280;64718;52.124;6.226;2023-02-05T09:41:39;103681.53;;;6.44;100.00
76022;BME280;64718;52.124;6.226;2023-02-05T09:44:15;103686.72;;;6.44;100.00
76022;BME280;64718;52.124;6.226;2023-02-05T09:46:47;103684.13;;;6.44;100.00
76022;BME280;64718;52.124;6.226;2023-02-05T09:49:18;103672.88;;;6.42;100.00
76022;BME280;64718;52.124;6.226;2023-02-05T09:51:49;103679.00;;;6.45;100.00
76022;BME280;64718;52.124;6.226;2023-02-05T09:54:19;103687.69;;;6.49;100.00
76022;BME280;64718;52.124;6.226;2023-02-05T09:56:49;103686.88;;;6.51;100.00
76022;BME280;64718;52.124;6.226;2023-02-05T09:59:20;103692.06;;;6.53;100.00
76022;BME280;64718;52.124;6.226;2023-02-05T10:01:50;103684.34;;;6.54;100.00
76022;BME280;64718;52.124;6.226;2023-02-05T10:04:18;103688.72;;;6.58;100.00
76022;BME280;64718;52.124;6.226;2023-02-05T10:07:04;103685.53;;;6.72;100.00
76022;BME280;64718;52.124;6.226;2023-02-05T10:09:47;103691.53;;;6.69;100.00
76022;BME280;64718;52.124;6.226;2023-02-05T10:12:28;103703.75;;;6.78;100.00
76022;BME280;64718;52.124;6.226;2023-02-05T10:15:16;103690.75;;;6.73;100.00
76022;BME280;64718;52.124;6.226;2023-02-05T10:17:55;103701.19;;;6.79;100.00
76022;BME280;64718;52.124;6.226;2023-02-05T10:20:35;103709.03;;;6.82;100.00
76022;BME280;64718;52.124;6.226;2023-02-05T10:23:14;103704.00;;;6.90;100.00
76022;BME280;64718;52.124;6.226;2023-02-05T10:28:36;103703.06;;;6.86;100.00
76022;BME280;64718;52.124;6.226;2023-02-05T10:31:14;103699.59;;;6.86;100.00
76022;BME280;64718;52.124;6.226;2023-02-05T10:33:46;103703.06;;;6.86;100.00
76022;BME280;64718;52.124;6.226;2023-02-05T10:36:15;103703.44;;;7.05;100.00
76022;BME280;64718;52.124;6.226;2023-02-05T10:38:47;103706.13;;;7.11;100.00
76022;BME280;64718;52.124;6.226;2023-02-05T10:41:21;103698.53;;;7.20;100.00
76022;BME280;64718;52.124;6.226;2023-02-05T10:43:52;103703.50;;;7.09;100.00
76022;BME280;64718;52.124;6.226;2023-02-05T10:46:30;103706.38;;;7.24;100.00
76022;BME280;64718;52.124;6.226;2023-02-05T10:49:00;103719.22;;;7.18;100.00
76022;BME280;64718;52.124;6.226;2023-02-05T10:51:32;103726.94;;;7.17;100.00
76022;BME280;64718;52.124;6.226;2023-02-05T10:54:02;103734.69;;;7.15;100.00
76022;BME280;64718;52.124;6.226;2023-02-05T10:56:29;103738.00;;;7.08;100.00
76022;BME280;64718;52.124;6.226;2023-02-05T10:58:59;103741.44;;;7.07;100.00
76022;BME280;64718;52.124;6.226;2023-02-05T11:01:31;103739.63;;;7.03;100.00
76022;BME280;64718;52.124;6.226;2023-02-05T11:04:02;103745.13;;;7.20;99.96
76022;BME280;64718;52.124;6.226;2023-02-05T11:06:40;103738.66;;;7.45;99.73
76022;BME280;64718;52.124;6.226;2023-02-05T11:09:28;103749.91;;;7.47;99.25
76022;BME280;64718;52.124;6.226;2023-02-05T11:11:57;103759.81;;;7.69;98.78
76022;BME280;64718;52.124;6.226;2023-02-05T11:14:28;103751.97;;;7.65;98.44
76022;BME280;64718;52.124;6.226;2023-02-05T11:16:59;103754.47;;;7.60;98.47
76022;BME280;64718;52.124;6.226;2023-02-05T11:19:29;103764.50;;;7.43;96.74
76022;BME280;64718;52.124;6.226;2023-02-05T11:22:00;103775.59;;;7.36;96.20
76022;BME280;64718;52.124;6.226;2023-02-05T11:24:29;103772.94;;;7.32;97.33
76022;BME280;64718;52.124;6.226;2023-02-05T11:27:25;103787.59;;;7.31;97.96
76022;BME280;64718;52.124;6.226;2023-02-05T11:29:53;103766.84;;;7.28;98.32
76022;BME280;64718;52.124;6.226;2023-02-05T11:32:30;103779.88;;;7.34;98.63
76022;BME280;64718;52.124;6.226;2023-02-05T11:35:09;103800.91;;;7.51;98.25
76022;BME280;64718;52.124;6.226;2023-02-05T11:37:39;103795.19;;;7.69;98.23
76022;BME280;64718;52.124;6.226;2023-02-05T11:40:17;103773.50;;;7.62;98.54
76022;BME280;64718;52.124;6.226;2023-02-05T11:42:47;103765.41;;;7.95;98.24
76022;BME280;64718;52.124;6.226;2023-02-05T11:45:17;103766.03;;;7.80;97.01
76022;BME280;64718;52.124;6.226;2023-02-05T11:47:46;103766.56;;;8.14;96.69
76022;BME280;64718;52.124;6.226;2023-02-05T11:50:21;103751.22;;;8.28;95.02
76022;BME280;64718;52.124;6.226;2023-02-05T11:52:48;103740.94;;;8.34;95.84
76022;BME280;64718;52.124;6.226;2023-02-05T11:55:23;103756.38;;;8.26;96.15
76022;BME280;64718;52.124;6.226;2023-02-05T11:57:57;103732.59;;;7.97;96.72
76022;BME280;64718;52.124;6.226;2023-02-05T12:00:24;103763.44;;;7.80;98.87
76022;BME280;64718;52.124;6.226;2023-02-05T12:03:02;103761.03;;;7.41;100.00
76022;BME280;64718;52.124;6.226;2023-02-05T12:05:30;103783.72;;;7.08;100.00
76022;BME280;64718;52.124;6.226;2023-02-05T12:08:00;103796.41;;;6.95;100.00
76022;BME280;64718;52.124;6.226;2023-02-05T12:10:35;103796.16;;;6.85;100.00
76022;BME280;64718;52.124;6.226;2023-02-05T12:13:14;103784.66;;;6.71;100.00
76022;BME280;64718;52.124;6.226;2023-02-05T12:15:50;103791.34;;;6.61;100.00
76022;BME280;64718;52.124;6.226;2023-02-05T12:18:28;103771.97;;;6.83;100.00
76022;BME280;64718;52.124;6.226;2023-02-05T12:21:08;103778.41;;;7.02;100.00
76022;BME280;64718;52.124;6.226;2023-02-05T12:23:56;103792.63;;;7.23;100.00
76022;BME280;64718;52.124;6.226;2023-02-05T12:26:30;103794.69;;;7.41;99.25
76022;BME280;64718;52.124;6.226;2023-02-05T12:29:30;103795.78;;;7.52;97.14
76022;BME280;64718;52.124;6.226;2023-02-05T12:32:10;103797.84;;;7.72;94.40
76022;BME280;64718;52.124;6.226;2023-02-05T12:34:54;103805.91;;;7.90;94.35
76022;BME280;64718;52.124;6.226;2023-02-05T12:37:29;103779.28;;;7.99;90.10
76022;BME280;64718;52.124;6.226;2023-02-05T12:40:03;103797.47;;;8.03;89.89
76022;BME280;64718;52.124;6.226;2023-02-05T12:42:35;103812.34;;;8.12;91.03
76022;BME280;64718;52.124;6.226;2023-02-05T12:45:22;103799.94;;;7.94;90.53
76022;BME280;64718;52.124;6.226;2023-02-05T12:48:10;103789.31;;;7.79;89.99
76022;BME280;64718;52.124;6.226;2023-02-05T12:51:02;103803.19;;;7.82;91.55
76022;BME280;64718;52.124;6.226;2023-02-05T12:53:41;103798.22;;;7.94;91.83
76022;BME280;64718;52.124;6.226;2023-02-05T12:56:34;103793.34;;;8.13;92.20
76022;BME280;64718;52.124;6.226;2023-02-05T12:59:11;103807.97;;;8.09;91.78
76022;BME280;64718;52.124;6.226;2023-02-05T13:01:43;103813.03;;;8.03;91.71
76022;BME280;64718;52.124;6.226;2023-02-05T13:04:19;103818.06;;;7.94;91.00
76022;BME280;64718;52.124;6.226;2023-02-05T13:06:51;103816.25;;;7.88;90.36
76022;BME280;64718;52.124;6.226;2023-02-05T13:09:22;103821.59;;;7.98;91.54